This is the latest recevied weather packets stored in our database for station/object ZL3GL-4. If no packets are shown the sender has not sent any weather packets the latest 10 day(s).
| Time | Temp. | Humidity | Pressure | Rain* | Wind** | Luminosity | Snow |
|---|---|---|---|---|---|---|---|
| 1777644766 | 6.67° C | 100% | 1030.9 hPa | 0 mm | 0 m/s | - | - |
| 1777643921 | 6.67° C | 100% | 1031 hPa | 0 mm | 0 m/s | - | - |
| 1777643077 | 7.22° C | 100% | 1031.3 hPa | 0 mm | 0 m/s | - | - |
| 1777642237 | 7.22° C | 100% | 1031.6 hPa | 0 mm | 0 m/s | - | - |
| 1777641390 | 7.78° C | 100% | 1031.8 hPa | 0 mm | 0.45 m/s, 300° | - | - |
| 1777640550 | 7.78° C | 100% | 1032 hPa | 0 mm | 0.45 m/s, 300° | - | - |
| 1777638865 | 8.33° C | 100% | 1032.2 hPa | 0 mm | 0 m/s | - | - |
| 1777637176 | 8.33° C | 100% | 1032.7 hPa | 0 mm | 0.45 m/s, 307° | - | - |
| 1777636332 | 8.33° C | 100% | 1032.9 hPa | 0 mm | 0.89 m/s, 322° | - | - |
| 1777635487 | 8.33° C | 100% | 1033.1 hPa | 0 mm | 0.45 m/s, 325° | - | - |
| 1777634643 | 8.33° C | 100% | 1033.3 hPa | 0 mm | 0.89 m/s, 335° | - | - |
| 1777633799 | 8.33° C | 100% | 1033.5 hPa | 0 mm | 0 m/s | - | - |
| 1777632960 | 8.89° C | 100% | 1033.7 hPa | 0 mm | 0.45 m/s, 291° | - | - |
| 1777632113 | 8.33° C | 100% | 1033.9 hPa | 0 mm | 0.89 m/s, 332° | - | - |
| 1777631269 | 8.33° C | 100% | 1034.2 hPa | 0 mm | 0.89 m/s, 281° | - | - |
| 1777629586 | 8.33° C | 100% | 1034.2 hPa | 0 mm | 0.89 m/s, 284° | - | - |
| 1777628739 | 8.33° C | 100% | 1034.2 hPa | 0 mm | 1.34 m/s, 325° | - | - |
| 1777627896 | 8.33° C | 100% | 1034.3 hPa | 0 mm | 0.89 m/s, 309° | - | - |
| 1777627053 | 8.33° C | 100% | 1034.4 hPa | 0 mm | 0.89 m/s, 307° | - | - |
| 1777626212 | 8.33° C | 100% | 1034.3 hPa | 0 mm | 0.89 m/s, 291° | - | - |
| 1777625369 | 8.33° C | 100% | 1034.5 hPa | 0 mm | 0.89 m/s, 308° | - | - |
| 1777623684 | 8.89° C | 100% | 1034.7 hPa | 0 mm | 1.34 m/s, 308° | - | - |
| 1777622842 | 8.33° C | 99% | 1034.7 hPa | 0 mm | 0.45 m/s, 297° | - | - |
| 1777621995 | 8.33° C | 99% | 1034.7 hPa | 0 mm | 0.45 m/s, 316° | - | - |
| 1777621151 | 8.89° C | 99% | 1034.7 hPa | 0 mm | 0 m/s | - | - |
* Rain latest hour (hover to see other rain measurements)
** Current wind speed in m/s (hover to see current wind gust speed)